Terminal Aerodrome Forecast
Issued by NWS Lake Charles, LA

Home | Current Version | Previous Version | Text Only | Print | Product List | Glossary On
Versions: 1 2 3 4 5 6 7 8 9 10 11 12 13 14 15 16 17 18 19 20
000
FTUS44 KLCH 301738
TAFARA
TAF
KARA 301738Z 3018/0118 22008KT P6SM VCTS SCT025CB BKN080
      TEMPO 3019/3022 VRB15G25KT 2SM +TSRA BKN015CB OVC035
     FM010200 VRB03KT P6SM BKN250
     FM011000 00000KT P6SM SCT015
     FM011500 22007KT P6SM VCSH SCT025=

USA.gov is the U.S. government's official web portal to all federal, state and local government web resources and services.